Gogama, Canada
Current Conditions -  °F | °C
As of 1:00 AM on Wednesday 22 Oct 2014 (Local Time) from CYTS Reporting Station
Clear Clear  
Wind Chill: 25°   Ceiling: Unl
Heat Index: 25°   Visibility: 15mi
Dew Point: 23°   Wind: 2mph
Humidity: 93%   Direction: 360°N
Pressure: 30.35"   Gusts: NA
Location:  47.67°N, 81.72°W
Report Text: CYTS 220500Z 36002KT 15SM SKC M04/M05 A3035 RMK FROIN SLP299
Loading
Personal Weather Stations






























Interactive Weather Map
Tropical Storm Tracking
New forecast layout! Learn more

10-Day Weather Forecast

Advertisements
Track Severe Weather on mobile